Time;durP1;ratioP1;P1;durP2;ratioP2;P2;SDS_P1;SDS_P2;PMS_P1;PMS_P2;Temp;Humidity;BMP_temperature;BMP_pressure;BME280_temperature;BME280_humidity;BME280_pressure;Samples;Min_cycle;Max_cycle;Signal;HPM_P1;HPM_P2
2021/12/21 00:01:38;;;;;;;10.85;4.72;;;;;;;;;;5055019;28;20053;-84
2021/12/21 00:04:04;;;;;;;10.90;5.03;;;;;;;;;;5070842;28;20404;-84
2021/12/21 00:06:30;;;;;;;9.98;4.88;;;;;;;;;;5055318;28;20048;-84
2021/12/21 00:08:56;;;;;;;14.73;5.22;;;;;;;;;;5070894;28;20044;-84
2021/12/21 00:11:22;;;;;;;12.45;5.65;;;;;;;;;;5054356;28;20070;-84
2021/12/21 00:16:41;;;;;;;11.55;4.90;;;;;;;;;;5071866;28;20048;-78
2021/12/21 00:23:58;;;;;;;12.02;5.60;;;;;;;;;;5071109;28;20051;-79
2021/12/21 00:26:24;;;;;;;11.32;5.63;;;;;;;;;;5054463;28;20076;-84
2021/12/21 00:29:00;;;;;;;10.15;5.53;;;;;;;;;;5070262;28;20152;-84
2021/12/21 00:31:27;;;;;;;14.23;5.85;;;;;;;;;;5071353;28;20087;-84
2021/12/21 00:33:54;;;;;;;11.30;5.57;;;;;;;;;;5070667;28;20051;-79
2021/12/21 00:36:21;;;;;;;10.98;6.30;;;;;;;;;;5070975;28;20123;-79
2021/12/21 00:38:48;;;;;;;13.82;6.00;;;;;;;;;;5054241;28;20493;-79
2021/12/21 00:41:14;;;;;;;9.60;5.68;;;;;;;;;;5071556;28;20040;-79
2021/12/21 00:43:41;;;;;;;10.73;5.25;;;;;;;;;;5070796;28;20359;-79
2021/12/21 00:46:07;;;;;;;12.45;6.50;;;;;;;;;;5054020;28;20119;-79
2021/12/21 00:48:35;;;;;;;11.05;6.57;;;;;;;;;;5070000;28;20052;-79
2021/12/21 00:51:03;;;;;;;10.93;5.40;;;;;;;;;;5054414;28;20524;-84
2021/12/21 00:53:29;;;;;;;18.05;6.30;;;;;;;;;;5053687;28;20051;-84
2021/12/21 00:55:55;;;;;;;13.00;6.90;;;;;;;;;;5053694;28;20049;-79
2021/12/21 00:58:21;;;;;;;13.98;7.43;;;;;;;;;;5070728;28;20045;-79
2021/12/21 01:00:47;;;;;;;15.10;6.97;;;;;;;;;;5072256;28;20471;-79
2021/12/21 01:03:16;;;;;;;23.13;9.05;;;;;;;;;;5072251;28;20045;-79
2021/12/21 01:08:13;;;;;;;18.23;8.38;;;;;;;;;;5070822;28;20565;-79
2021/12/21 01:10:51;;;;;;;18.33;7.70;;;;;;;;;;5070734;28;20040;-79
2021/12/21 01:13:33;;;;;;;17.35;7.50;;;;;;;;;;5070928;28;20523;-79
2021/12/21 01:16:17;;;;;;;15.75;8.00;;;;;;;;;;5053480;28;20218;-79
2021/12/21 01:19:48;;;;;;;15.10;7.20;;;;;;;;;;5056546;28;20040;-84
2021/12/21 01:29:52;;;;;;;14.57;6.18;;;;;;;;;;5070003;28;20044;-79
2021/12/21 01:32:32;;;;;;;16.67;6.38;;;;;;;;;;5070039;28;20048;-84
2021/12/21 01:35:13;;;;;;;13.60;6.13;;;;;;;;;;5069151;28;20052;-84
2021/12/21 01:40:22;;;;;;;9.82;4.78;;;;;;;;;;5069591;28;20067;-84
2021/12/21 01:50:48;;;;;;;13.60;6.55;;;;;;;;;;5069159;28;20048;-84
2021/12/21 01:53:14;;;;;;;10.65;6.35;;;;;;;;;;5052607;28;20055;-84
2021/12/21 01:55:42;;;;;;;11.73;5.60;;;;;;;;;;5069924;28;20063;-79
2021/12/21 01:58:08;;;;;;;11.60;6.57;;;;;;;;;;5071679;28;20457;-83
2021/12/21 02:00:35;;;;;;;10.25;6.28;;;;;;;;;;5068599;28;20075;-84
2021/12/21 02:03:02;;;;;;;9.45;4.78;;;;;;;;;;5070884;28;20036;-79
2021/12/21 02:05:28;;;;;;;11.30;5.53;;;;;;;;;;5069851;28;20048;-84
2021/12/21 02:07:54;;;;;;;12.13;5.65;;;;;;;;;;5070187;28;20098;-79
2021/12/21 02:10:21;;;;;;;17.15;7.75;;;;;;;;;;5070264;28;20040;-79
2021/12/21 02:12:47;;;;;;;19.95;8.43;;;;;;;;;;5053577;28;20357;-79
2021/12/21 02:15:13;;;;;;;14.63;7.68;;;;;;;;;;5070158;28;20424;-79
2021/12/21 02:28:35;;;;;;;16.23;6.85;;;;;;;;;;5070469;28;20059;-79
2021/12/21 02:31:02;;;;;;;16.52;6.95;;;;;;;;;;5069645;28;20075;-79
2021/12/21 02:33:28;;;;;;;16.35;7.22;;;;;;;;;;5070171;28;20051;-79
2021/12/21 02:35:57;;;;;;;15.77;7.22;;;;;;;;;;5070039;28;20041;-79
2021/12/21 02:38:23;;;;;;;15.90;6.43;;;;;;;;;;5037171;28;20041;-79
2021/12/21 02:40:49;;;;;;;13.07;7.13;;;;;;;;;;5069725;28;20097;-79
2021/12/21 02:43:15;;;;;;;13.18;6.03;;;;;;;;;;5070432;28;20484;-79
2021/12/21 02:45:42;;;;;;;16.40;6.50;;;;;;;;;;5069014;28;20144;-84
2021/12/21 02:48:08;;;;;;;10.98;6.10;;;;;;;;;;5068646;28;20172;-84
2021/12/21 02:50:38;;;;;;;17.48;7.53;;;;;;;;;;5070109;28;20049;-79
2021/12/21 02:53:05;;;;;;;18.83;7.70;;;;;;;;;;5060584;28;20048;-79
2021/12/21 02:55:31;;;;;;;11.82;7.18;;;;;;;;;;5051059;28;20045;-79
2021/12/21 02:57:57;;;;;;;14.88;6.60;;;;;;;;;;5049805;28;20053;-79
2021/12/21 03:00:25;;;;;;;13.20;5.78;;;;;;;;;;5049887;28;20068;-79
2021/12/21 03:02:52;;;;;;;14.35;6.25;;;;;;;;;;5051798;28;20028;-79
2021/12/21 03:05:19;;;;;;;13.75;6.38;;;;;;;;;;5069652;28;20048;-79
2021/12/21 03:10:32;;;;;;;15.48;6.78;;;;;;;;;;5035504;28;20055;-84
2021/12/21 03:15:26;;;;;;;13.95;6.60;;;;;;;;;;5073761;28;20500;-83
2021/12/21 03:17:52;;;;;;;12.65;6.68;;;;;;;;;;5055727;28;20090;-79
2021/12/21 03:20:18;;;;;;;15.77;6.50;;;;;;;;;;5057664;28;20451;-80
2021/12/21 03:22:45;;;;;;;13.13;6.80;;;;;;;;;;5074216;28;20075;-79
2021/12/21 03:25:11;;;;;;;10.30;6.38;;;;;;;;;;5073965;28;20080;-79
2021/12/21 03:27:37;;;;;;;13.93;6.22;;;;;;;;;;5057279;28;20049;-79
2021/12/21 03:30:06;;;;;;;16.08;6.78;;;;;;;;;;5073913;28;20441;-80
2021/12/21 03:32:32;;;;;;;13.90;6.75;;;;;;;;;;5073769;28;20090;-80
2021/12/21 03:34:58;;;;;;;12.55;6.13;;;;;;;;;;5073069;28;20044;-84
2021/12/21 03:37:24;;;;;;;19.30;7.35;;;;;;;;;;5073731;28;20032;-84
2021/12/21 03:39:52;;;;;;;17.02;7.10;;;;;;;;;;5071953;28;20033;-84
2021/12/21 03:42:19;;;;;;;14.52;7.28;;;;;;;;;;5056020;28;20079;-80
2021/12/21 03:44:47;;;;;;;12.93;7.07;;;;;;;;;;5073925;28;20488;-79
2021/12/21 03:47:15;;;;;;;15.68;7.18;;;;;;;;;;5074158;28;20048;-79
2021/12/21 03:52:28;;;;;;;19.40;8.30;;;;;;;;;;5073345;28;20040;-83
2021/12/21 03:54:56;;;;;;;20.85;9.82;;;;;;;;;;5072198;28;20400;-84
2021/12/21 03:57:22;;;;;;;15.98;9.45;;;;;;;;;;5072440;28;20048;-84
2021/12/21 03:59:49;;;;;;;18.48;10.13;;;;;;;;;;5073007;28;20056;-79
2021/12/21 04:02:16;;;;;;;15.43;9.27;;;;;;;;;;5073873;28;20028;-79
2021/12/21 04:04:43;;;;;;;18.58;8.55;;;;;;;;;;5073620;28;20044;-79
2021/12/21 04:07:09;;;;;;;22.10;8.85;;;;;;;;;;5073063;28;20094;-79
2021/12/21 04:09:35;;;;;;;16.10;9.07;;;;;;;;;;5073670;28;20036;-79
2021/12/21 04:12:01;;;;;;;23.27;9.57;;;;;;;;;;5072545;28;20049;-79
2021/12/21 04:14:28;;;;;;;18.70;9.18;;;;;;;;;;5056894;28;20119;-79
2021/12/21 04:16:54;;;;;;;19.77;9.15;;;;;;;;;;5072847;28;20048;-79
2021/12/21 04:19:21;;;;;;;18.85;9.80;;;;;;;;;;5073319;28;20524;-79
2021/12/21 04:21:47;;;;;;;22.92;10.05;;;;;;;;;;5072534;28;20049;-84
2021/12/21 04:24:13;;;;;;;19.50;10.15;;;;;;;;;;5072704;28;20080;-83
2021/12/21 04:26:40;;;;;;;21.42;10.52;;;;;;;;;;5072884;28;20044;-79
2021/12/21 04:29:06;;;;;;;20.58;9.70;;;;;;;;;;5056065;28;20263;-80
2021/12/21 04:31:32;;;;;;;23.90;9.43;;;;;;;;;;5072730;28;20083;-80
2021/12/21 04:33:59;;;;;;;17.35;9.60;;;;;;;;;;5072696;28;20399;-79
2021/12/21 04:36:25;;;;;;;26.17;9.38;;;;;;;;;;5056323;28;20049;-83
2021/12/21 04:38:52;;;;;;;19.75;9.75;;;;;;;;;;5072037;28;20074;-83
2021/12/21 04:41:27;;;;;;;20.10;9.10;;;;;;;;;;5055630;28;20036;-83
2021/12/21 04:43:55;;;;;;;20.43;9.90;;;;;;;;;;5057047;28;20044;-79
2021/12/21 04:46:21;;;;;;;22.63;9.77;;;;;;;;;;5072808;28;20349;-79
2021/12/21 04:48:47;;;;;;;20.77;9.82;;;;;;;;;;5055899;28;20399;-79
2021/12/21 04:51:14;;;;;;;24.23;10.05;;;;;;;;;;5073500;28;20041;-83
2021/12/21 04:53:40;;;;;;;21.38;9.70;;;;;;;;;;5072723;28;20075;-83
2021/12/21 04:56:06;;;;;;;23.77;10.30;;;;;;;;;;5055887;28;20053;-83
2021/12/21 04:58:32;;;;;;;19.10;9.95;;;;;;;;;;5074121;28;20083;-83
2021/12/21 05:00:59;;;;;;;23.10;9.38;;;;;;;;;;5038200;28;20477;-83
2021/12/21 05:03:25;;;;;;;20.35;9.57;;;;;;;;;;5072442;28;20040;-79
2021/12/21 05:05:51;;;;;;;19.27;9.68;;;;;;;;;;5072165;28;20044;-83
2021/12/21 05:08:26;;;;;;;20.80;9.60;;;;;;;;;;5056215;28;20093;-83
2021/12/21 05:10:57;;;;;;;24.10;9.98;;;;;;;;;;5057892;28;20052;-83
2021/12/21 05:13:25;;;;;;;24.77;10.70;;;;;;;;;;5056386;28;20040;-83
2021/12/21 05:15:51;;;;;;;24.60;10.63;;;;;;;;;;5055830;28;20036;-83
2021/12/21 05:18:18;;;;;;;24.27;10.25;;;;;;;;;;5056053;28;20037;-83
2021/12/21 05:20:44;;;;;;;21.98;10.20;;;;;;;;;;5072506;28;20044;-83
2021/12/21 05:23:11;;;;;;;28.10;10.60;;;;;;;;;;5072353;28;20044;-83
2021/12/21 05:25:37;;;;;;;26.42;10.23;;;;;;;;;;5072629;28;20513;-79
2021/12/21 05:28:04;;;;;;;22.52;10.25;;;;;;;;;;5073130;28;20131;-79
2021/12/21 05:30:30;;;;;;;26.00;10.45;;;;;;;;;;5072223;28;20044;-79
2021/12/21 05:32:57;;;;;;;23.48;10.43;;;;;;;;;;5054693;28;20458;-83
2021/12/21 05:35:25;;;;;;;24.35;11.13;;;;;;;;;;5072213;28;20087;-79
2021/12/21 05:37:55;;;;;;;28.60;10.68;;;;;;;;;;5071328;28;20154;-79
2021/12/21 05:40:21;;;;;;;27.35;11.52;;;;;;;;;;5071671;28;20484;-79
2021/12/21 05:42:48;;;;;;;28.33;12.23;;;;;;;;;;5054995;28;20043;-79
2021/12/21 05:45:15;;;;;;;21.27;11.07;;;;;;;;;;5071436;28;20048;-79
2021/12/21 05:47:42;;;;;;;24.83;12.18;;;;;;;;;;5072259;28;20044;-83
2021/12/21 05:50:11;;;;;;;22.38;11.45;;;;;;;;;;5072446;28;20400;-83
2021/12/21 05:52:37;;;;;;;24.95;12.00;;;;;;;;;;5072281;28;20097;-83
2021/12/21 05:55:05;;;;;;;31.50;12.20;;;;;;;;;;5054571;28;20040;-79
2021/12/21 05:57:32;;;;;;;22.08;10.43;;;;;;;;;;5072172;28;20515;-83
2021/12/21 05:59:58;;;;;;;28.42;12.32;;;;;;;;;;5072231;28;20082;-83
2021/12/21 06:02:24;;;;;;;25.42;12.35;;;;;;;;;;5072342;28;20063;-83
2021/12/21 06:04:50;;;;;;;22.58;11.70;;;;;;;;;;5072225;28;20131;-83
2021/12/21 06:07:16;;;;;;;26.67;12.40;;;;;;;;;;5072292;28;20044;-83
2021/12/21 06:09:46;;;;;;;29.67;14.18;;;;;;;;;;5073335;28;20480;-83
2021/12/21 06:12:41;;;;;;;27.77;13.50;;;;;;;;;;5072479;28;20036;-83
2021/12/21 06:15:20;;;;;;;30.33;14.00;;;;;;;;;;5071608;28;20126;-83
2021/12/21 06:23:43;;;;;;;25.90;12.82;;;;;;;;;;5071531;28;20044;-83
2021/12/21 06:26:08;;;;;;;24.85;13.60;;;;;;;;;;5071008;28;20506;-79
2021/12/21 06:28:34;;;;;;;25.83;12.98;;;;;;;;;;5054618;28;20048;-83
2021/12/21 06:31:00;;;;;;;25.15;13.27;;;;;;;;;;5071755;28;20434;-79
2021/12/21 06:33:26;;;;;;;28.58;13.40;;;;;;;;;;5071205;28;20044;-79
2021/12/21 06:35:53;;;;;;;26.70;13.07;;;;;;;;;;5070899;28;20554;-82
2021/12/21 06:38:20;;;;;;;32.35;14.60;;;;;;;;;;5039055;28;20041;-79
2021/12/21 06:40:46;;;;;;;26.42;14.65;;;;;;;;;;5071514;28;20041;-83
2021/12/21 06:43:15;;;;;;;28.67;13.95;;;;;;;;;;5055266;28;20449;-79
2021/12/21 06:45:59;;;;;;;31.23;13.85;;;;;;;;;;5073622;28;20044;-78
2021/12/21 06:51:16;;;;;;;33.35;15.73;;;;;;;;;;5074791;28;20050;-79
2021/12/21 06:53:44;;;;;;;29.42;15.02;;;;;;;;;;5074679;28;20044;-79
2021/12/21 06:56:11;;;;;;;24.73;13.85;;;;;;;;;;5074366;28;20129;-79
2021/12/21 06:58:37;;;;;;;34.95;15.00;;;;;;;;;;5075164;28;20131;-79
2021/12/21 07:01:04;;;;;;;28.92;15.73;;;;;;;;;;5074480;28;20546;-79
2021/12/21 07:03:31;;;;;;;30.30;15.93;;;;;;;;;;5075527;28;20049;-83
2021/12/21 07:06:00;;;;;;;33.33;14.85;;;;;;;;;;5074898;28;20075;-83
2021/12/21 07:08:29;;;;;;;31.40;15.52;;;;;;;;;;5075502;28;20047;-79
2021/12/21 07:18:57;;;;;;;28.42;15.07;;;;;;;;;;5075220;28;20044;-83
2021/12/21 07:21:23;;;;;;;26.52;14.15;;;;;;;;;;5075372;28;20066;-83
2021/12/21 07:23:51;;;;;;;29.05;14.43;;;;;;;;;;5075418;28;20223;-83
2021/12/21 07:26:17;;;;;;;29.52;14.02;;;;;;;;;;5076371;28;20051;-79
2021/12/21 07:28:44;;;;;;;25.83;13.48;;;;;;;;;;5074482;28;20502;-78
2021/12/21 07:31:10;;;;;;;34.72;13.25;;;;;;;;;;5073969;28;20128;-79
2021/12/21 07:33:36;;;;;;;24.25;14.13;;;;;;;;;;5074798;28;20396;-83
2021/12/21 07:36:03;;;;;;;24.05;13.82;;;;;;;;;;5058609;28;20040;-83
2021/12/21 07:38:30;;;;;;;30.67;14.63;;;;;;;;;;5075152;28;20484;-78
2021/12/21 07:41:03;;;;;;;31.88;15.18;;;;;;;;;;5074055;28;20045;-83
2021/12/21 07:43:29;;;;;;;37.50;17.15;;;;;;;;;;5076120;28;20041;-83
2021/12/21 07:45:56;;;;;;;34.80;17.70;;;;;;;;;;5058188;28;20082;-83
2021/12/21 07:48:22;;;;;;;29.20;15.32;;;;;;;;;;5075277;28;20401;-83
2021/12/21 07:50:50;;;;;;;34.58;17.30;;;;;;;;;;5074687;28;20427;-79
2021/12/21 07:53:17;;;;;;;38.28;16.25;;;;;;;;;;5075450;28;20438;-83
2021/12/21 07:55:43;;;;;;;33.17;16.65;;;;;;;;;;5075544;28;20052;-83
2021/12/21 07:58:10;;;;;;;38.65;17.20;;;;;;;;;;5057917;28;20127;-83
2021/12/21 08:00:36;;;;;;;30.35;17.38;;;;;;;;;;5075106;28;20126;-83
2021/12/21 08:03:02;;;;;;;32.00;17.23;;;;;;;;;;5058275;28;20369;-83
2021/12/21 08:05:32;;;;;;;35.83;16.48;;;;;;;;;;5074954;28;20131;-83
2021/12/21 08:08:08;;;;;;;34.47;16.30;;;;;;;;;;5058444;28;20067;-83
2021/12/21 08:10:44;;;;;;;33.63;17.50;;;;;;;;;;5075679;28;20044;-83
2021/12/21 08:13:11;;;;;;;33.30;17.25;;;;;;;;;;5074854;28;20040;-78
2021/12/21 08:15:37;;;;;;;32.83;17.13;;;;;;;;;;5074060;28;20459;-78
2021/12/21 08:18:03;;;;;;;37.95;17.65;;;;;;;;;;5073696;28;20054;-83
2021/12/21 08:20:29;;;;;;;34.72;17.23;;;;;;;;;;5073316;28;20040;-78
2021/12/21 08:22:56;;;;;;;34.42;18.52;;;;;;;;;;5056417;28;20043;-79
2021/12/21 08:25:24;;;;;;;38.72;20.27;;;;;;;;;;5073382;28;20052;-83
2021/12/21 08:27:51;;;;;;;34.25;19.75;;;;;;;;;;5056240;28;20052;-79
2021/12/21 08:30:17;;;;;;;36.17;19.70;;;;;;;;;;5073262;28;20048;-83
2021/12/21 08:32:43;;;;;;;35.25;17.50;;;;;;;;;;5055800;28;20048;-79
2021/12/21 08:35:12;;;;;;;27.77;15.32;;;;;;;;;;5055694;28;20527;-84
2021/12/21 08:37:38;;;;;;;26.00;14.43;;;;;;;;;;5072886;28;20106;-79
2021/12/21 08:40:06;;;;;;;24.83;14.98;;;;;;;;;;5055194;28;20036;-79
2021/12/21 08:42:34;;;;;;;24.10;14.60;;;;;;;;;;5073513;28;20036;-84
2021/12/21 08:45:06;;;;;;;19.67;12.70;;;;;;;;;;5055893;28;20056;-84
2021/12/21 08:47:32;;;;;;;17.50;11.80;;;;;;;;;;5056010;28;20051;-84
2021/12/21 08:49:58;;;;;;;21.00;12.73;;;;;;;;;;5072367;28;20044;-84
2021/12/21 08:52:24;;;;;;;21.38;11.75;;;;;;;;;;5072725;28;20530;-82
2021/12/21 08:54:50;;;;;;;19.75;11.57;;;;;;;;;;5071757;28;20051;-77
2021/12/21 08:57:16;;;;;;;17.40;10.30;;;;;;;;;;5072294;28;20111;-77
2021/12/21 08:59:42;;;;;;;21.70;10.25;;;;;;;;;;5071145;28;20044;-77
2021/12/21 09:02:09;;;;;;;17.15;10.52;;;;;;;;;;5071200;28;20476;-77
2021/12/21 09:04:36;;;;;;;19.52;12.25;;;;;;;;;;5054659;28;20044;-78
2021/12/21 09:07:03;;;;;;;14.68;9.70;;;;;;;;;;5070833;28;20131;-77
2021/12/21 09:09:30;;;;;;;15.35;9.60;;;;;;;;;;5070542;28;20576;-78
2021/12/21 09:11:56;;;;;;;16.63;9.35;;;;;;;;;;5054296;28;20044;-80
2021/12/21 09:14:22;;;;;;;17.27;10.02;;;;;;;;;;5070950;28;20042;-80
2021/12/21 09:16:49;;;;;;;14.32;9.63;;;;;;;;;;5070890;28;20044;-78
2021/12/21 09:19:16;;;;;;;16.00;10.45;;;;;;;;;;5070246;28;20049;-78
2021/12/21 09:21:42;;;;;;;15.90;9.88;;;;;;;;;;5070563;28;20093;-78
2021/12/21 09:24:08;;;;;;;15.70;9.95;;;;;;;;;;5070147;28;20044;-78
2021/12/21 09:26:35;;;;;;;17.40;11.05;;;;;;;;;;5070579;28;20044;-78
2021/12/21 09:29:01;;;;;;;16.23;10.57;;;;;;;;;;5053800;28;20487;-81
2021/12/21 09:31:27;;;;;;;15.77;10.82;;;;;;;;;;5072061;28;20396;-81
2021/12/21 09:33:54;;;;;;;15.55;10.73;;;;;;;;;;5055169;28;20496;-81
2021/12/21 09:36:20;;;;;;;20.80;11.48;;;;;;;;;;5071954;28;20045;-81
2021/12/21 09:38:46;;;;;;;17.95;10.90;;;;;;;;;;5072225;28;20037;-81
2021/12/21 09:41:12;;;;;;;16.13;10.57;;;;;;;;;;5055416;28;20395;-81
2021/12/21 09:43:42;;;;;;;37.88;21.20;;;;;;;;;;5071009;28;20044;-79
2021/12/21 09:46:09;;;;;;;17.70;11.95;;;;;;;;;;5053046;28;20121;-79
2021/12/21 09:48:35;;;;;;;17.63;11.70;;;;;;;;;;5069798;28;20044;-79
2021/12/21 09:51:01;;;;;;;15.40;10.27;;;;;;;;;;5052872;28;20037;-81
2021/12/21 09:53:30;;;;;;;15.65;10.50;;;;;;;;;;5069868;28;20067;-81
2021/12/21 09:55:58;;;;;;;18.40;10.30;;;;;;;;;;5069034;28;20079;-81
2021/12/21 09:58:24;;;;;;;14.30;10.43;;;;;;;;;;5070008;28;20094;-81
2021/12/21 10:00:50;;;;;;;14.43;10.07;;;;;;;;;;5069340;28;20040;-81
2021/12/21 10:03:17;;;;;;;16.40;10.88;;;;;;;;;;5053062;28;20045;-82
2021/12/21 10:05:44;;;;;;;15.70;10.10;;;;;;;;;;5070631;28;20033;-82
2021/12/21 10:08:11;;;;;;;17.00;10.77;;;;;;;;;;5068888;28;20063;-82
2021/12/21 10:10:39;;;;;;;17.02;11.60;;;;;;;;;;5069424;28;20098;-82
2021/12/21 10:13:07;;;;;;;21.10;12.20;;;;;;;;;;5052177;28;20052;-82
2021/12/21 10:15:38;;;;;;;16.58;11.55;;;;;;;;;;5069170;28;20048;-82
2021/12/21 10:18:04;;;;;;;16.95;11.88;;;;;;;;;;5052166;28;20124;-82
2021/12/21 10:20:32;;;;;;;26.65;18.20;;;;;;;;;;5052126;28;20131;-82
2021/12/21 10:22:58;;;;;;;21.92;15.57;;;;;;;;;;5069983;28;20040;-82
2021/12/21 10:25:25;;;;;;;27.48;18.85;;;;;;;;;;5069833;28;20082;-82
2021/12/21 10:27:51;;;;;;;34.08;19.27;;;;;;;;;;5052553;28;20048;-82
2021/12/21 10:30:17;;;;;;;28.13;16.63;;;;;;;;;;5069088;28;20048;-82
2021/12/21 10:32:56;;;;;;;26.45;15.25;;;;;;;;;;5070151;28;20070;-82
2021/12/21 10:35:30;;;;;;;27.02;14.23;;;;;;;;;;5052412;28;20045;-81
2021/12/21 10:37:56;;;;;;;20.10;12.15;;;;;;;;;;5068771;28;20047;-81
2021/12/21 10:40:28;;;;;;;19.75;12.27;;;;;;;;;;5070151;28;20081;-81
2021/12/21 10:43:02;;;;;;;17.63;11.88;;;;;;;;;;5068966;28;20048;-80
2021/12/21 10:45:33;;;;;;;21.02;12.10;;;;;;;;;;5068501;28;20055;-80
2021/12/21 10:47:59;;;;;;;17.13;11.73;;;;;;;;;;5068191;28;20052;-80
2021/12/21 10:50:26;;;;;;;22.05;12.88;;;;;;;;;;5069029;28;20520;-79
2021/12/21 10:52:54;;;;;;;18.17;12.38;;;;;;;;;;5070160;28;20255;-80
2021/12/21 10:55:34;;;;;;;16.38;11.77;;;;;;;;;;5069123;28;20082;-79
2021/12/21 10:58:15;;;;;;;16.88;11.60;;;;;;;;;;5068180;28;20060;-79
2021/12/21 11:00:51;;;;;;;19.10;11.25;;;;;;;;;;5069787;28;20052;-79
2021/12/21 11:03:18;;;;;;;15.30;10.18;;;;;;;;;;5068334;28;20041;-79
2021/12/21 11:05:47;;;;;;;17.17;10.48;;;;;;;;;;5052107;28;20352;-79
2021/12/21 11:08:24;;;;;;;15.88;10.43;;;;;;;;;;5068129;28;20036;-79
2021/12/21 11:10:54;;;;;;;15.38;9.75;;;;;;;;;;5068470;28;20048;-79
2021/12/21 11:13:20;;;;;;;15.63;9.10;;;;;;;;;;5068611;28;20097;-78
2021/12/21 11:15:56;;;;;;;14.02;8.70;;;;;;;;;;5051709;28;20044;-78
2021/12/21 11:18:23;;;;;;;14.80;9.40;;;;;;;;;;5051795;28;20053;-78
2021/12/21 11:20:51;;;;;;;13.80;9.27;;;;;;;;;;5068314;28;20045;-78
2021/12/21 11:23:18;;;;;;;14.50;8.05;;;;;;;;;;5051486;28;20123;-78
2021/12/21 11:25:46;;;;;;;13.23;7.60;;;;;;;;;;5068187;28;20047;-79
2021/12/21 11:28:15;;;;;;;15.60;8.70;;;;;;;;;;5067616;28;20051;-78
2021/12/21 11:30:41;;;;;;;11.57;7.75;;;;;;;;;;5068451;28;20398;-78
2021/12/21 11:33:09;;;;;;;14.02;7.65;;;;;;;;;;5073168;28;20076;-80
2021/12/21 11:38:03;;;;;;;15.77;7.35;;;;;;;;;;5071873;28;20047;-80
2021/12/21 11:40:32;;;;;;;13.32;7.38;;;;;;;;;;5071984;28;20041;-80
2021/12/21 11:43:06;;;;;;;14.27;7.28;;;;;;;;;;5072942;28;20044;-80
2021/12/21 11:45:48;;;;;;;13.52;7.05;;;;;;;;;;5072907;28;20044;-80
2021/12/21 11:48:29;;;;;;;15.15;7.72;;;;;;;;;;5071445;28;20083;-80
2021/12/21 11:51:00;;;;;;;13.63;6.90;;;;;;;;;;5071308;28;20037;-79
2021/12/21 11:53:26;;;;;;;16.98;8.50;;;;;;;;;;5071979;28;20045;-80
2021/12/21 11:55:53;;;;;;;15.63;8.52;;;;;;;;;;5071589;28;20473;-80
2021/12/21 11:58:22;;;;;;;16.30;8.48;;;;;;;;;;5071867;28;20050;-80
2021/12/21 12:00:49;;;;;;;14.55;7.85;;;;;;;;;;5072792;28;20052;-80
2021/12/21 12:03:20;;;;;;;17.05;8.63;;;;;;;;;;5072535;28;20114;-80
2021/12/21 12:05:53;;;;;;;14.88;7.72;;;;;;;;;;5055027;28;20047;-80
2021/12/21 12:08:20;;;;;;;13.45;7.18;;;;;;;;;;5071834;28;20128;-79
2021/12/21 12:10:50;;;;;;;13.38;7.78;;;;;;;;;;5071571;28;20531;-79
2021/12/21 12:13:28;;;;;;;10.57;5.85;;;;;;;;;;5054652;28;20040;-79
2021/12/21 12:16:11;;;;;;;13.77;6.25;;;;;;;;;;5072606;28;20396;-79
2021/12/21 12:18:46;;;;;;;15.23;7.28;;;;;;;;;;5071751;28;20044;-79
2021/12/21 12:21:14;;;;;;;12.83;6.80;;;;;;;;;;5054518;28;20045;-79
2021/12/21 12:23:44;;;;;;;13.25;7.32;;;;;;;;;;5072744;28;20278;-79
2021/12/21 12:26:20;;;;;;;11.65;6.85;;;;;;;;;;5054385;28;20106;-79
2021/12/21 12:28:46;;;;;;;13.50;7.00;;;;;;;;;;5071492;28;20124;-79
2021/12/21 12:31:12;;;;;;;12.43;6.85;;;;;;;;;;5070769;28;20041;-79
2021/12/21 12:33:39;;;;;;;13.35;7.10;;;;;;;;;;5053912;28;20104;-79
2021/12/21 12:36:05;;;;;;;16.08;7.75;;;;;;;;;;5071216;28;20044;-79
2021/12/21 12:38:32;;;;;;;14.07;7.68;;;;;;;;;;5053755;28;20128;-79
2021/12/21 12:41:03;;;;;;;16.67;8.88;;;;;;;;;;5072001;28;20055;-79
2021/12/21 12:43:30;;;;;;;13.25;7.78;;;;;;;;;;5052886;28;20036;-79
2021/12/21 12:46:05;;;;;;;14.82;7.85;;;;;;;;;;5070615;28;20123;-79
2021/12/21 12:48:47;;;;;;;15.82;8.18;;;;;;;;;;5070805;28;20044;-79
2021/12/21 12:51:28;;;;;;;17.15;8.25;;;;;;;;;;5053732;28;20048;-77
2021/12/21 12:53:54;;;;;;;13.48;7.80;;;;;;;;;;5071919;28;20055;-78
2021/12/21 12:56:20;;;;;;;21.50;9.27;;;;;;;;;;5053720;28;20491;-79
2021/12/21 12:58:58;;;;;;;15.13;8.70;;;;;;;;;;5070676;28;20044;-78
2021/12/21 13:01:26;;;;;;;16.63;8.50;;;;;;;;;;5071394;28;20041;-78
2021/12/21 13:03:54;;;;;;;15.05;9.25;;;;;;;;;;5070436;28;20075;-78
2021/12/21 13:06:21;;;;;;;18.17;9.65;;;;;;;;;;5070027;28;20048;-78
2021/12/21 13:08:47;;;;;;;21.83;9.35;;;;;;;;;;5053555;28;20040;-79
2021/12/21 13:11:14;;;;;;;15.05;9.05;;;;;;;;;;5069747;28;20045;-79
2021/12/21 13:13:42;;;;;;;16.73;9.60;;;;;;;;;;5070122;28;20043;-78
2021/12/21 13:16:09;;;;;;;18.90;9.55;;;;;;;;;;5069930;28;20048;-79
2021/12/21 13:18:51;;;;;;;18.60;10.55;;;;;;;;;;5071685;28;20167;-79
2021/12/21 13:21:19;;;;;;;21.90;10.10;;;;;;;;;;5052695;28;20051;-77
2021/12/21 13:23:47;;;;;;;19.27;10.93;;;;;;;;;;5071892;28;20076;-77
2021/12/21 13:26:13;;;;;;;23.15;10.57;;;;;;;;;;5053699;28;20488;-76
2021/12/21 13:28:45;;;;;;;19.75;10.70;;;;;;;;;;5071159;28;20047;-76
2021/12/21 13:31:15;;;;;;;19.85;10.68;;;;;;;;;;5069056;28;20039;-76
2021/12/21 13:33:41;;;;;;;21.58;11.07;;;;;;;;;;5070508;28;20046;-76
2021/12/21 13:36:08;;;;;;;17.55;10.13;;;;;;;;;;5071502;28;20044;-78
2021/12/21 13:38:36;;;;;;;18.25;10.25;;;;;;;;;;5069833;28;20080;-76
2021/12/21 13:41:06;;;;;;;17.80;9.88;;;;;;;;;;5069173;28;20076;-76
2021/12/21 13:43:33;;;;;;;21.35;10.65;;;;;;;;;;5069147;28;20041;-77
2021/12/21 13:46:01;;;;;;;18.75;10.30;;;;;;;;;;5068956;28;20044;-76
2021/12/21 13:48:28;;;;;;;20.65;10.88;;;;;;;;;;5070477;28;20124;-76
2021/12/21 13:50:54;;;;;;;23.77;11.52;;;;;;;;;;5069499;28;20043;-76
2021/12/21 13:53:21;;;;;;;17.27;10.27;;;;;;;;;;5068478;28;20094;-76
2021/12/21 13:55:51;;;;;;;19.95;11.27;;;;;;;;;;5068301;28;20094;-76
2021/12/21 13:58:18;;;;;;;22.70;12.65;;;;;;;;;;5068455;28;20052;-77
2021/12/21 14:00:45;;;;;;;22.80;12.68;;;;;;;;;;5068915;28;20531;-77
2021/12/21 14:05:57;;;;;;;22.33;12.27;;;;;;;;;;5070277;28;20041;-77
2021/12/21 14:08:23;;;;;;;20.85;12.88;;;;;;;;;;5051645;28;20127;-77
2021/12/21 14:10:53;;;;;;;19.75;12.20;;;;;;;;;;5068855;28;20044;-76
2021/12/21 14:13:27;;;;;;;23.65;12.82;;;;;;;;;;5068423;28;20052;-76
2021/12/21 14:15:53;;;;;;;21.45;12.48;;;;;;;;;;5070143;28;20098;-77
2021/12/21 14:18:19;;;;;;;22.77;12.70;;;;;;;;;;5051817;28;20623;-76
2021/12/21 14:20:47;;;;;;;21.42;12.15;;;;;;;;;;5051653;28;20047;-77
2021/12/21 14:23:19;;;;;;;22.23;12.50;;;;;;;;;;5067766;28;20476;-77
2021/12/21 14:25:46;;;;;;;23.83;12.68;;;;;;;;;;5068156;28;20385;-76
2021/12/21 14:28:13;;;;;;;19.23;12.60;;;;;;;;;;5067890;28;20044;-77
2021/12/21 14:30:39;;;;;;;21.30;11.40;;;;;;;;;;5051638;28;20106;-76
2021/12/21 14:33:27;;;;;;;24.08;11.68;;;;;;;;;;5067996;28;20064;-77
2021/12/21 14:35:53;;;;;;;17.42;10.60;;;;;;;;;;5068599;28;20504;-76
2021/12/21 14:38:19;;;;;;;19.33;11.23;;;;;;;;;;5067700;28;20161;-76
2021/12/21 14:40:47;;;;;;;20.73;11.70;;;;;;;;;;5069178;28;20036;-77
2021/12/21 14:43:20;;;;;;;22.17;10.98;;;;;;;;;;5067663;28;20048;-77
2021/12/21 14:45:47;;;;;;;18.23;10.93;;;;;;;;;;5069801;28;20507;-84
2021/12/21 14:48:20;;;;;;;22.27;12.23;;;;;;;;;;5070511;28;20492;-76
2021/12/21 14:50:49;;;;;;;20.88;10.38;;;;;;;;;;5069257;28;20049;-76
2021/12/21 14:53:17;;;;;;;17.10;10.15;;;;;;;;;;5068085;28;20045;-76
2021/12/21 14:55:43;;;;;;;23.80;13.38;;;;;;;;;;5068220;28;20155;-75
2021/12/21 14:58:15;;;;;;;20.77;11.68;;;;;;;;;;5067752;28;20206;-76
2021/12/21 15:00:42;;;;;;;20.15;10.73;;;;;;;;;;5068492;28;20492;-76
2021/12/21 15:03:13;;;;;;;19.17;11.30;;;;;;;;;;5068090;28;20151;-76
2021/12/21 15:05:40;;;;;;;20.35;11.13;;;;;;;;;;5068583;28;20044;-77
2021/12/21 15:08:08;;;;;;;20.85;10.00;;;;;;;;;;5071668;28;20048;-77
2021/12/21 15:10:35;;;;;;;22.42;10.38;;;;;;;;;;5071935;28;20362;-77
2021/12/21 15:13:02;;;;;;;17.33;10.25;;;;;;;;;;5071822;28;20052;-77
2021/12/21 15:15:29;;;;;;;22.58;11.93;;;;;;;;;;5073666;28;20098;-77
2021/12/21 15:17:55;;;;;;;24.52;11.70;;;;;;;;;;5072505;28;20036;-77
2021/12/21 15:20:22;;;;;;;25.30;11.30;;;;;;;;;;5071975;28;20115;-77
2021/12/21 15:22:50;;;;;;;23.48;11.13;;;;;;;;;;5072084;28;20044;-77
2021/12/21 15:25:17;;;;;;;45.83;25.73;;;;;;;;;;5071562;28;20097;-77
2021/12/21 15:27:43;;;;;;;47.20;24.20;;;;;;;;;;5072087;28;20164;-77
2021/12/21 15:30:11;;;;;;;41.05;26.90;;;;;;;;;;5071558;28;20098;-77
2021/12/21 15:32:37;;;;;;;37.17;21.60;;;;;;;;;;5073188;28;20079;-77
2021/12/21 15:35:04;;;;;;;27.13;15.18;;;;;;;;;;5071677;28;20048;-77
2021/12/21 15:37:30;;;;;;;29.58;15.20;;;;;;;;;;5073062;28;20074;-77
2021/12/21 15:39:56;;;;;;;23.40;13.23;;;;;;;;;;5071790;28;20043;-77